Time;durP1;ratioP1;P1;durP2;ratioP2;P2;SDS_P1;SDS_P2;PMS_P1;PMS_P2;Temp;Humidity;BMP_temperature;BMP_pressure;BME280_temperature;BME280_humidity;BME280_pressure;Samples;Min_cycle;Max_cycle;Signal;HPM_P1;HPM_P2
2022/04/02 00:02:28;;;;;;;5.22;3.17;;;0.20;1.00;;;;;;5052335;28;20075;-85
2022/04/02 00:05:05;;;;;;;4.45;3.22;;;0.10;1.00;;;;;;5036973;28;20068;-85
2022/04/02 00:07:34;;;;;;;4.00;3.03;;;0.10;1.00;;;;;;5068160;28;20056;-85
2022/04/02 00:10:03;;;;;;;4.88;3.35;;;0.00;1.00;;;;;;5041395;28;20044;-85
2022/04/02 00:12:29;;;;;;;7.43;3.70;;;0.10;1.00;;;;;;5039017;28;20352;-87
2022/04/02 00:14:55;;;;;;;6.30;3.42;;;0.20;1.00;;;;;;5039178;28;20032;-86
2022/04/02 00:17:29;;;;;;;6.63;3.92;;;0.20;1.00;;;;;;5034537;28;20045;-86
2022/04/02 00:19:55;;;;;;;5.18;3.50;;;0.10;1.00;;;;;;5056315;28;20129;-86
2022/04/02 00:22:23;;;;;;;5.18;3.20;;;0.10;1.00;;;;;;5035290;28;20505;-85
2022/04/02 00:24:55;;;;;;;5.60;3.30;;;0.00;1.00;;;;;;5054289;28;20036;-85
2022/04/02 00:27:21;;;;;;;5.95;3.28;;;-0.10;18.20;;;;;;5037390;28;20561;-85
2022/04/02 00:29:46;;;;;;;5.90;3.35;;;-0.10;58.70;;;;;;5047979;28;20036;-84
2022/04/02 00:32:15;;;;;;;4.40;3.08;;;-0.10;91.60;;;;;;5054165;28;20153;-84
2022/04/02 00:34:50;;;;;;;6.55;3.28;;;-0.10;98.60;;;;;;5035529;28;20032;-84
2022/04/02 00:37:15;;;;;;;5.53;3.72;;;-0.10;47.90;;;;;;5038221;28;20094;-84
2022/04/02 00:39:41;;;;;;;4.20;3.25;;;0.00;29.50;;;;;;5038207;28;20591;-84
2022/04/02 00:42:07;;;;;;;6.05;3.20;;;0.00;45.10;;;;;;5048298;28;20441;-83
2022/04/02 00:44:39;;;;;;;5.03;2.90;;;0.10;23.60;;;;;;5052774;28;20268;-84
2022/04/02 00:47:04;;;;;;;6.82;3.40;;;0.00;1.00;;;;;;5067798;28;20036;-84
2022/04/02 00:49:30;;;;;;;9.38;3.72;;;0.00;1.00;;;;;;5045247;28;20036;-84
2022/04/02 00:51:59;;;;;;;4.53;3.22;;;0.00;25.40;;;;;;5054050;28;20513;-84
2022/04/02 00:54:25;;;;;;;5.05;3.22;;;0.10;21.10;;;;;;5037137;28;20037;-84
2022/04/02 00:56:51;;;;;;;6.50;3.30;;;0.10;10.90;;;;;;5054013;28;20055;-85
2022/04/02 00:59:17;;;;;;;5.15;3.30;;;0.20;1.00;;;;;;5038414;28;20044;-84
2022/04/02 01:01:45;;;;;;;7.13;3.40;;;0.20;17.40;;;;;;5052147;28;20090;-84
2022/04/02 01:04:13;;;;;;;5.93;3.10;;;0.10;1.00;;;;;;5054718;28;20047;-85
2022/04/02 01:06:43;;;;;;;5.70;3.22;;;0.20;1.00;;;;;;5052266;28;20043;-84
2022/04/02 01:09:11;;;;;;;5.47;2.60;;;0.20;1.00;;;;;;5053695;28;20468;-84
2022/04/02 01:11:43;;;;;;;7.70;3.50;;;0.30;1.00;;;;;;5039833;28;20044;-84
2022/04/02 01:14:10;;;;;;;4.15;3.15;;;0.30;1.00;;;;;;5053107;28;20063;-84
2022/04/02 01:16:39;;;;;;;6.15;3.17;;;0.20;1.00;;;;;;5062324;28;20052;-84
2022/04/02 01:19:15;;;;;;;6.20;3.22;;;0.20;1.00;;;;;;5037832;28;20036;-84
2022/04/02 01:21:47;;;;;;;6.28;3.10;;;0.20;1.00;;;;;;5034792;28;20052;-83
2022/04/02 01:24:13;;;;;;;5.53;3.25;;;0.20;1.00;;;;;;5047023;28;20033;-84
2022/04/02 01:26:39;;;;;;;5.03;2.85;;;0.30;1.00;;;;;;5033054;28;20388;-84
2022/04/02 01:29:08;;;;;;;5.55;2.85;;;0.10;1.00;;;;;;5037577;28;20066;-84
2022/04/02 01:31:40;;;;;;;5.05;3.35;;;0.10;34.20;;;;;;5062563;28;20097;-84
2022/04/02 01:34:14;;;;;;;5.97;3.10;;;0.00;55.40;;;;;;5064156;28;20135;-83
2022/04/02 01:36:39;;;;;;;6.70;3.35;;;0.00;90.80;;;;;;5035108;28;20036;-84
2022/04/02 01:39:05;;;;;;;6.38;3.53;;;0.00;92.80;;;;;;5054386;28;20369;-84
2022/04/02 01:41:36;;;;;;;5.65;3.08;;;-0.20;99.90;;;;;;5049821;28;20412;-84
2022/04/02 01:44:02;;;;;;;6.85;3.40;;;-0.10;99.90;;;;;;5035174;28;20033;-84
2022/04/02 01:46:27;;;;;;;5.45;3.33;;;-0.20;99.90;;;;;;5033424;28;20043;-84
2022/04/02 01:48:53;;;;;;;5.00;3.42;;;-0.20;99.90;;;;;;5050267;28;20037;-84
2022/04/02 01:51:19;;;;;;;5.95;3.35;;;-0.10;99.90;;;;;;5051308;28;20390;-84
2022/04/02 01:53:44;;;;;;;6.15;3.55;;;-0.10;99.90;;;;;;5045897;28;20045;-84
2022/04/02 01:56:10;;;;;;;6.47;3.13;;;0.00;99.90;;;;;;5051622;28;20408;-84
2022/04/02 01:58:37;;;;;;;4.72;3.25;;;0.00;99.90;;;;;;5035328;28;20439;-84
2022/04/02 02:01:05;;;;;;;4.00;2.92;;;0.00;99.90;;;;;;5051585;28;20223;-84
2022/04/02 02:03:36;;;;;;;7.78;3.50;;;0.00;99.90;;;;;;5035787;28;20393;-84
2022/04/02 02:06:02;;;;;;;6.80;3.40;;;0.00;99.90;;;;;;5037114;28;20032;-84
2022/04/02 02:08:31;;;;;;;5.93;2.95;;;-0.10;99.90;;;;;;5051669;28;20332;-84
2022/04/02 02:11:02;;;;;;;6.75;3.20;;;-0.20;99.90;;;;;;5038203;28;20475;-84
2022/04/02 02:13:28;;;;;;;4.80;3.30;;;-0.30;99.90;;;;;;5070531;28;20025;-85
2022/04/02 02:15:54;;;;;;;5.97;3.50;;;-0.30;99.90;;;;;;5052258;28;20029;-84
2022/04/02 02:18:22;;;;;;;6.85;3.03;;;-0.40;99.90;;;;;;5036318;28;20041;-84
2022/04/02 02:20:50;;;;;;;5.28;3.33;;;-0.40;99.90;;;;;;5038063;28;20037;-83
2022/04/02 02:23:16;;;;;;;4.15;2.80;;;-0.40;99.90;;;;;;5042312;28;20033;-84
2022/04/02 02:25:42;;;;;;;7.45;3.40;;;-0.40;99.90;;;;;;5055424;28;20044;-85
2022/04/02 02:28:14;;;;;;;5.07;3.33;;;-0.50;1.00;;;;;;5036827;28;20056;-84
2022/04/02 02:30:43;;;;;;;8.95;3.72;;;-0.50;99.90;;;;;;5062416;28;20491;-84
2022/04/02 02:35:54;;;;;;;4.50;3.08;;;-0.50;1.00;;;;;;5051939;28;20509;-84
2022/04/02 02:38:25;;;;;;;6.68;3.20;;;-0.40;1.00;;;;;;5061737;28;20049;-84
2022/04/02 02:40:52;;;;;;;5.38;3.00;;;-0.40;1.00;;;;;;5054186;28;20047;-84
2022/04/02 02:43:23;;;;;;;5.82;3.25;;;-0.40;1.00;;;;;;5055437;28;20040;-84
2022/04/02 02:45:55;;;;;;;5.40;3.10;;;-0.40;1.00;;;;;;5040624;28;20040;-84
2022/04/02 02:48:21;;;;;;;5.22;3.20;;;-0.50;1.00;;;;;;5057067;28;20044;-84
2022/04/02 02:50:47;;;;;;;6.65;3.30;;;-0.50;1.00;;;;;;5040718;28;20508;-84
2022/04/02 02:53:19;;;;;;;5.20;3.20;;;-0.40;1.00;;;;;;5053845;28;20042;-84
2022/04/02 02:55:53;;;;;;;4.78;2.80;;;-0.30;1.00;;;;;;5046118;28;20554;-84
2022/04/02 02:58:22;;;;;;;;;;;-0.30;1.00;;;;;;5040552;28;20387;-84
2022/04/02 03:00:51;;;;;;;6.45;3.45;;;-0.40;1.00;;;;;;5055298;28;20183;-84
2022/04/02 03:03:16;;;;;;;4.18;3.20;;;-0.30;1.00;;;;;;5058062;28;20743;-84
2022/04/02 03:05:43;;;;;;;5.47;3.28;;;-0.50;1.00;;;;;;5059261;28;20592;-84
2022/04/02 03:08:08;;;;;;;5.65;3.28;;;-0.40;1.00;;;;;;5066825;28;20063;-84
2022/04/02 03:10:40;;;;;;;6.00;3.30;;;-0.50;1.00;;;;;;5041221;28;20071;-83
2022/04/02 03:13:12;;;;;;;6.28;3.08;;;-0.50;1.00;;;;;;5055641;28;20129;-84
2022/04/02 03:15:43;;;;;;;6.43;3.03;;;-0.60;1.00;;;;;;5055489;28;20252;-84
2022/04/02 03:18:18;;;;;;;5.57;2.78;;;-0.60;1.70;;;;;;5064950;28;20115;-84
2022/04/02 03:20:49;;;;;;;6.28;3.47;;;-0.60;94.70;;;;;;5041117;28;20117;-84
2022/04/02 03:23:18;;;;;;;7.25;3.15;;;-0.60;59.40;;;;;;5052382;28;20424;-84
2022/04/02 03:25:43;;;;;;;6.90;3.47;;;-0.60;35.70;;;;;;5057178;28;20173;-84
2022/04/02 03:28:09;;;;;;;5.57;2.80;;;-0.50;99.90;;;;;;5052458;28;20371;-84
2022/04/02 03:30:38;;;;;;;8.43;3.63;;;-0.60;99.90;;;;;;5039951;28;20409;-84
2022/04/02 03:33:04;;;;;;;7.20;3.30;;;-0.60;99.90;;;;;;5055697;28;20902;-85
2022/04/02 03:35:36;;;;;;;3.83;2.72;;;-0.40;99.90;;;;;;5040036;28;20552;-84
2022/04/02 03:38:02;;;;;;;7.45;3.47;;;-0.50;93.60;;;;;;5055369;28;20135;-84
2022/04/02 03:40:28;;;;;;;6.05;2.88;;;-0.40;99.90;;;;;;5040505;28;20186;-83
2022/04/02 03:42:54;;;;;;;6.90;2.75;;;-0.30;99.90;;;;;;5038141;28;20032;-84
2022/04/02 03:45:21;;;;;;;4.30;2.67;;;-0.30;99.90;;;;;;5040466;28;20381;-84
2022/04/02 03:47:47;;;;;;;7.13;2.78;;;-0.20;99.90;;;;;;5039604;28;20042;-84
2022/04/02 03:50:13;;;;;;;10.02;3.08;;;-0.10;99.90;;;;;;5067948;28;20049;-84
2022/04/02 03:52:40;;;;;;;4.88;2.80;;;0.00;60.00;;;;;;5047939;28;20120;-85
2022/04/02 03:55:06;;;;;;;4.70;3.00;;;-0.10;2.20;;;;;;5056390;28;20654;-85
2022/04/02 03:57:33;;;;;;;4.05;2.92;;;0.10;4.30;;;;;;5038710;28;20048;-84
2022/04/02 03:59:59;;;;;;;4.97;3.00;;;-0.10;1.00;;;;;;5049281;28;20064;-84
2022/04/02 04:02:27;;;;;;;4.95;2.60;;;0.00;1.00;;;;;;5035245;28;20400;-84
2022/04/02 04:04:53;;;;;;;7.72;3.15;;;0.00;1.00;;;;;;5038929;28;20190;-85
2022/04/02 04:07:23;;;;;;;5.47;2.60;;;-0.10;1.00;;;;;;5051431;28;20512;-84
2022/04/02 04:09:57;;;;;;;5.68;2.70;;;-0.20;1.00;;;;;;5064752;28;20131;-84
2022/04/02 04:12:23;;;;;;;4.80;2.70;;;0.00;99.90;;;;;;5035990;28;20388;-84
2022/04/02 04:14:48;;;;;;;6.63;3.08;;;-0.20;1.00;;;;;;5054937;28;20036;-84
2022/04/02 04:17:14;;;;;;;4.88;2.65;;;-0.10;92.00;;;;;;5052821;28;20044;-84
2022/04/02 04:19:41;;;;;;;5.60;2.67;;;-0.20;99.90;;;;;;5048143;28;20043;-84
2022/04/02 04:22:10;;;;;;;6.57;2.75;;;-0.30;99.90;;;;;;5035321;28;20063;-85
2022/04/02 04:24:36;;;;;;;5.70;2.55;;;-0.20;99.90;;;;;;5039367;28;20186;-84
2022/04/02 04:27:02;;;;;;;9.60;2.83;;;-0.20;99.90;;;;;;5065824;28;20044;-84
2022/04/02 04:29:28;;;;;;;6.88;2.53;;;-0.20;99.90;;;;;;5056542;28;20044;-84
2022/04/02 04:31:53;;;;;;;6.55;2.85;;;-0.10;99.90;;;;;;5038970;28;20037;-84
2022/04/02 04:34:19;;;;;;;6.40;2.80;;;-0.10;99.90;;;;;;5055619;28;20400;-85
2022/04/02 04:36:48;;;;;;;6.85;2.72;;;-0.10;99.90;;;;;;5039051;28;20083;-84
2022/04/02 04:39:13;;;;;;;6.55;2.65;;;-0.10;99.90;;;;;;5031878;28;20029;-84
2022/04/02 04:41:41;;;;;;;5.88;2.95;;;-0.10;99.90;;;;;;5058703;28;20063;-84
2022/04/02 04:44:06;;;;;;;4.97;2.92;;;0.10;99.90;;;;;;5056721;28;20048;-84
2022/04/02 04:46:32;;;;;;;5.25;2.95;;;0.20;99.90;;;;;;5072665;28;20048;-84
2022/04/02 04:48:58;;;;;;;5.03;2.90;;;0.30;99.90;;;;;;5053887;28;20024;-84
2022/04/02 04:51:23;;;;;;;6.90;2.45;;;0.30;99.90;;;;;;5048129;28;20084;-84
2022/04/02 04:53:52;;;;;;;4.35;2.60;;;0.40;99.90;;;;;;5051924;28;20119;-84
2022/04/02 04:56:18;;;;;;;4.07;2.33;;;0.50;99.90;;;;;;5042935;28;20737;-84
2022/04/02 04:58:48;;;;;;;4.97;3.00;;;0.50;99.90;;;;;;5070218;28;20111;-84
2022/04/02 05:01:17;;;;;;;5.03;2.90;;;0.50;99.90;;;;;;5037578;28;20028;-82
2022/04/02 05:03:43;;;;;;;8.63;3.10;;;0.50;99.90;;;;;;5036503;28;20068;-82
2022/04/02 05:06:16;;;;;;;8.27;2.95;;;0.60;99.90;;;;;;5066872;28;20547;-84
2022/04/02 05:08:49;;;;;;;8.48;3.00;;;0.70;99.90;;;;;;5040695;28;20611;-82
2022/04/02 05:11:21;;;;;;;9.13;3.10;;;0.70;99.90;;;;;;5060444;28;20167;-82
2022/04/02 05:13:47;;;;;;;5.65;2.95;;;0.70;99.90;;;;;;5048925;28;20033;-82
2022/04/02 05:16:13;;;;;;;8.90;2.85;;;0.90;99.90;;;;;;5048363;28;20420;-81
2022/04/02 05:18:42;;;;;;;7.22;2.90;;;0.90;99.90;;;;;;5053162;28;20339;-81
2022/04/02 05:21:08;;;;;;;5.82;3.40;;;0.90;99.90;;;;;;5071082;28;20044;-81
2022/04/02 05:23:33;;;;;;;7.43;3.00;;;1.00;99.90;;;;;;5050417;28;20032;-82
2022/04/02 05:25:59;;;;;;;5.45;3.00;;;0.90;99.90;;;;;;5051802;28;20101;-82
2022/04/02 05:28:27;;;;;;;5.88;3.55;;;0.90;99.90;;;;;;5038557;28;20432;-81
2022/04/02 05:30:59;;;;;;;5.63;3.13;;;0.90;99.90;;;;;;5035845;28;20323;-81
2022/04/02 05:33:25;;;;;;;4.63;2.70;;;0.90;99.90;;;;;;5037995;28;20048;-81
2022/04/02 05:35:53;;;;;;;9.10;3.45;;;0.90;99.90;;;;;;5051814;28;20456;-82
2022/04/02 05:38:24;;;;;;;7.43;3.30;;;0.90;99.90;;;;;;5069779;28;20033;-82
2022/04/02 05:40:50;;;;;;;3.53;2.58;;;0.90;34.30;;;;;;5055800;28;20124;-82
2022/04/02 05:43:16;;;;;;;7.28;3.22;;;0.90;91.90;;;;;;5051621;28;20043;-81
2022/04/02 05:45:42;;;;;;;6.88;3.35;;;1.00;98.20;;;;;;5036722;28;20033;-81
2022/04/02 05:48:07;;;;;;;7.20;3.10;;;0.90;99.90;;;;;;5038444;28;20040;-82
2022/04/02 05:50:33;;;;;;;6.22;3.15;;;1.00;99.90;;;;;;5053849;28;20048;-82
2022/04/02 05:53:00;;;;;;;4.15;2.88;;;1.10;99.90;;;;;;5037827;28;20751;-81
2022/04/02 05:55:35;;;;;;;7.95;3.33;;;1.10;99.90;;;;;;5039476;28;20039;-82
2022/04/02 05:58:01;;;;;;;8.18;3.58;;;1.20;81.30;;;;;;5037426;28;20029;-82
2022/04/02 06:00:28;;;;;;;6.53;3.40;;;1.30;53.10;;;;;;5053037;28;20495;-82
2022/04/02 06:02:54;;;;;;;6.43;3.47;;;1.30;44.50;;;;;;5051878;28;20112;-82
2022/04/02 06:05:31;;;;;;;5.93;3.38;;;1.50;32.80;;;;;;5046161;28;20124;-82
2022/04/02 06:07:57;;;;;;;5.82;3.70;;;1.60;1.00;;;;;;5030648;28;20260;-82
2022/04/02 06:10:27;;;;;;;8.57;3.70;;;1.70;1.00;;;;;;5069735;28;20214;-82
2022/04/02 06:12:56;;;;;;;7.30;3.53;;;1.80;1.00;;;;;;5055632;28;20392;-81
2022/04/02 06:15:27;;;;;;;5.57;3.38;;;1.90;1.00;;;;;;5064423;28;20045;-81
2022/04/02 06:17:59;;;;;;;5.65;3.10;;;2.00;1.00;;;;;;5038968;28;20047;-82
2022/04/02 06:20:25;;;;;;;8.02;3.67;;;2.00;1.00;;;;;;5055672;28;20044;-82
2022/04/02 06:22:59;;;;;;;7.57;3.70;;;2.20;99.90;;;;;;5036043;28;20122;-83
2022/04/02 06:25:25;;;;;;;8.45;4.00;;;2.30;99.90;;;;;;5051672;28;20040;-83
2022/04/02 06:27:54;;;;;;;6.30;3.17;;;2.40;99.90;;;;;;5052471;28;20095;-83
2022/04/02 06:30:26;;;;;;;5.00;3.05;;;2.40;99.90;;;;;;5036207;28;20499;-83
2022/04/02 06:32:53;;;;;;;7.43;2.95;;;2.50;99.90;;;;;;5051965;28;20033;-84
2022/04/02 06:35:21;;;;;;;6.50;2.90;;;2.50;99.90;;;;;;5037265;28;20048;-84
2022/04/02 06:37:53;;;;;;;4.55;2.72;;;2.60;99.90;;;;;;5050235;28;20544;-84
2022/04/02 06:40:22;;;;;;;4.53;3.00;;;2.60;99.90;;;;;;5066798;28;20101;-84
2022/04/02 06:42:48;;;;;;;4.63;2.50;;;2.60;99.90;;;;;;5035710;28;20052;-84
2022/04/02 06:45:14;;;;;;;3.63;2.47;;;2.70;15.10;;;;;;5054910;28;20037;-84
2022/04/02 06:47:44;;;;;;;5.50;2.80;;;2.70;1.00;;;;;;5056323;28;20114;-84
2022/04/02 06:50:13;;;;;;;4.25;2.47;;;2.80;68.50;;;;;;5046209;28;20080;-84
2022/04/02 06:52:40;;;;;;;4.68;2.60;;;2.90;1.00;;;;;;5052561;28;20480;-84
2022/04/02 06:55:08;;;;;;;4.95;2.50;;;2.90;1.00;;;;;;5052908;28;20047;-84
2022/04/02 06:57:41;;;;;;;4.55;2.50;;;3.00;1.00;;;;;;5045665;28;20044;-84
2022/04/02 07:00:07;;;;;;;4.82;2.60;;;3.10;1.00;;;;;;5053263;28;20025;-85
2022/04/02 07:02:32;;;;;;;4.57;2.60;;;3.20;1.00;;;;;;5049232;28;20544;-84
2022/04/02 07:05:01;;;;;;;5.57;2.40;;;3.20;1.00;;;;;;5043907;28;20112;-84
2022/04/02 07:07:27;;;;;;;6.10;2.45;;;3.20;1.00;;;;;;5031596;28;20516;-84
2022/04/02 07:09:56;;;;;;;5.88;2.30;;;3.30;1.00;;;;;;5034897;28;20110;-83
2022/04/02 07:12:22;;;;;;;4.93;2.75;;;3.40;1.00;;;;;;5051077;28;20044;-84
2022/04/02 07:14:48;;;;;;;7.28;2.58;;;3.50;1.00;;;;;;5053054;28;20502;-84
2022/04/02 07:17:14;;;;;;;7.57;2.60;;;3.50;1.00;;;;;;5035352;28;20045;-84
2022/04/02 07:19:41;;;;;;;6.40;2.75;;;3.60;1.00;;;;;;5054828;28;20649;-83
2022/04/02 07:22:09;;;;;;;4.53;2.30;;;3.70;1.00;;;;;;5059413;28;20037;-84
2022/04/02 07:24:38;;;;;;;3.92;2.50;;;3.80;1.00;;;;;;5034831;28;20056;-83
2022/04/02 07:27:07;;;;;;;3.72;2.45;;;3.70;99.90;;;;;;5035715;28;20059;-83
2022/04/02 07:29:33;;;;;;;6.15;2.35;;;3.80;1.00;;;;;;5039453;28;20036;-83
2022/04/02 07:32:00;;;;;;;4.60;2.38;;;3.50;1.00;;;;;;5052368;28;20039;-82
2022/04/02 07:34:26;;;;;;;3.67;2.28;;;3.30;99.90;;;;;;5040063;28;20381;-83
2022/04/02 07:37:18;;;;;;;3.33;1.88;;;3.30;99.90;;;;;;5053606;28;20128;-83
2022/04/02 07:40:06;;;;;;;4.03;2.10;;;3.20;1.00;;;;;;5059136;28;20392;-82
2022/04/02 07:43:10;;;;;;;5.22;2.28;;;3.20;1.00;;;;;;5041418;28;20252;-83
2022/04/02 07:45:40;;;;;;;4.72;2.13;;;3.00;1.00;;;;;;5053468;28;20102;-83
2022/04/02 07:48:10;;;;;;;3.95;2.10;;;3.10;1.00;;;;;;5054378;28;20565;-82
2022/04/02 07:50:42;;;;;;;3.53;2.10;;;2.90;1.00;;;;;;5057300;28;20055;-82
2022/04/02 07:53:17;;;;;;;4.93;1.92;;;3.00;99.90;;;;;;5055098;28;20045;-81
2022/04/02 07:55:46;;;;;;;5.72;1.92;;;3.00;1.00;;;;;;5041723;28;20041;-82
2022/04/02 07:58:16;;;;;;;3.47;2.22;;;3.10;1.00;;;;;;5057188;28;20491;-83
2022/04/02 08:00:48;;;;;;;4.70;2.20;;;3.30;1.00;;;;;;5040685;28;20089;-84
2022/04/02 08:03:18;;;;;;;3.35;2.28;;;3.30;1.00;;;;;;5056122;28;20127;-82
2022/04/02 08:05:48;;;;;;;5.70;2.10;;;3.40;1.00;;;;;;5054354;28;20095;-83
2022/04/02 08:08:14;;;;;;;2.53;1.90;;;3.30;99.90;;;;;;5054000;28;20123;-83
2022/04/02 08:10:48;;;;;;;4.63;2.40;;;3.50;1.00;;;;;;5041495;28;20040;-82
2022/04/02 08:13:21;;;;;;;4.25;2.15;;;3.50;1.00;;;;;;5054321;28;20090;-83
2022/04/02 08:15:51;;;;;;;3.30;2.10;;;3.50;1.00;;;;;;5059435;28;20410;-83
2022/04/02 08:18:21;;;;;;;5.18;2.25;;;3.50;1.00;;;;;;5039268;28;20115;-82
2022/04/02 08:20:49;;;;;;;8.10;2.55;;;3.50;1.00;;;;;;5042316;28;20562;-83
2022/04/02 08:23:15;;;;;;;3.92;2.17;;;3.70;1.00;;;;;;5052651;28;20190;-83
2022/04/02 08:25:59;;;;;;;5.30;2.40;;;3.80;1.00;;;;;;5035958;28;20128;-83
2022/04/02 08:28:55;;;;;;;3.13;2.00;;;3.80;1.00;;;;;;5053120;28;20028;-84
2022/04/02 08:31:56;;;;;;;3.90;2.10;;;4.00;1.00;;;;;;5039648;28;20079;-83
2022/04/02 08:34:43;;;;;;;4.60;2.10;;;4.10;1.00;;;;;;5056697;28;20440;-83
2022/04/02 08:37:21;;;;;;;4.95;2.38;;;4.20;1.00;;;;;;5063395;28;20115;-83
2022/04/02 08:40:09;;;;;;;6.28;2.10;;;4.40;1.00;;;;;;5061688;28;20028;-83
2022/04/02 08:42:43;;;;;;;5.28;2.17;;;4.40;1.00;;;;;;5045833;28;20036;-83
2022/04/02 08:45:11;;;;;;;5.28;2.10;;;4.30;1.00;;;;;;5054572;28;20072;-82
2022/04/02 08:48:04;;;;;;;3.90;2.03;;;4.20;99.90;;;;;;5054946;28;20141;-83
2022/04/02 08:50:34;;;;;;;3.92;2.10;;;4.10;1.00;;;;;;5065272;28;20048;-83
2022/04/02 08:53:20;;;;;;;4.55;1.70;;;4.30;99.90;;;;;;5035498;28;20140;-82
2022/04/02 08:56:00;;;;;;;3.22;1.70;;;4.60;99.90;;;;;;5038906;28;20475;-83
2022/04/02 08:58:41;;;;;;;4.30;1.65;;;4.60;99.90;;;;;;5034601;28;20037;-83
2022/04/02 09:01:09;;;;;;;2.08;1.70;;;4.90;99.90;;;;;;5053518;28;20040;-83
2022/04/02 09:04:00;;;;;;;3.53;1.65;;;4.90;99.90;;;;;;5054532;28;20047;-83
2022/04/02 09:06:49;;;;;;;2.67;1.40;;;5.10;99.90;;;;;;5056593;28;20086;-82
2022/04/02 09:09:53;;;;;;;3.53;1.75;;;5.30;99.90;;;;;;5048763;28;20047;-84
2022/04/02 09:12:28;;;;;;;5.38;2.08;;;5.30;99.90;;;;;;5025154;28;20094;-83
2022/04/02 09:15:06;;;;;;;5.75;1.70;;;5.50;99.90;;;;;;5066250;28;20036;-83
2022/04/02 09:17:36;;;;;;;3.70;1.73;;;5.70;99.90;;;;;;5036362;28;20037;-83
2022/04/02 09:20:22;;;;;;;3.38;1.30;;;5.40;99.90;;;;;;5069221;28;20507;-83
2022/04/02 09:23:15;;;;;;;2.90;1.63;;;5.10;99.90;;;;;;5022652;28;20637;-83
2022/04/02 09:25:50;;;;;;;2.70;1.45;;;5.10;99.90;;;;;;5037779;28;20121;-83
2022/04/02 09:28:25;;;;;;;3.95;2.35;;;5.00;99.90;;;;;;5043119;28;20055;-83
2022/04/02 09:31:15;;;;;;;7.18;2.25;;;5.10;99.90;;;;;;5070468;28;20075;-83
2022/04/02 09:33:59;;;;;;;3.03;1.77;;;5.30;99.90;;;;;;5055273;28;20070;-83
2022/04/02 09:36:59;;;;;;;2.35;1.75;;;5.40;99.90;;;;;;5054877;28;20189;-83
2022/04/02 09:39:36;;;;;;;4.63;1.60;;;5.50;99.90;;;;;;4954089;28;20056;-83
2022/04/02 09:42:37;;;;;;;4.80;2.00;;;5.60;99.90;;;;;;5063937;28;20037;-83
2022/04/02 09:45:03;;;;;;;2.95;1.85;;;5.70;99.90;;;;;;5040415;28;20120;-84
2022/04/02 09:48:06;;;;;;;3.78;1.85;;;6.30;99.90;;;;;;5039985;28;20051;-83
2022/04/02 09:50:32;;;;;;;4.57;1.70;;;6.40;99.90;;;;;;4957300;28;20045;-83
2022/04/02 09:53:12;;;;;;;4.22;1.88;;;6.60;99.90;;;;;;5065295;28;20139;-84
2022/04/02 09:55:56;;;;;;;3.58;1.55;;;6.70;99.90;;;;;;5070773;28;20128;-83
2022/04/02 09:58:43;;;;;;;3.65;1.55;;;6.20;99.90;;;;;;5054791;28;20044;-84
2022/04/02 10:01:17;;;;;;;2.78;1.70;;;6.00;99.90;;;;;;5036506;28;20044;-83
2022/04/02 10:04:00;;;;;;;5.70;1.83;;;6.00;99.90;;;;;;5053159;28;20279;-83
2022/04/02 10:06:41;;;;;;;3.97;1.90;;;5.80;99.90;;;;;;5048968;28;20119;-83
2022/04/02 10:09:13;;;;;;;6.10;1.70;;;5.50;99.90;;;;;;5056411;28;20476;-83
2022/04/02 10:11:55;;;;;;;4.53;2.00;;;5.10;99.90;;;;;;5052359;28;20040;-83
2022/04/02 10:14:23;;;;;;;4.13;1.55;;;5.10;99.90;;;;;;5044746;28;20037;-83
2022/04/02 10:17:06;;;;;;;4.22;1.58;;;5.10;99.90;;;;;;5050971;28;20032;-84
2022/04/02 10:19:34;;;;;;;2.17;1.35;;;5.30;99.90;;;;;;5039293;28;20127;-83
2022/04/02 10:22:09;;;;;;;4.65;1.77;;;5.20;99.90;;;;;;5040710;28;20036;-84
2022/04/02 10:24:39;;;;;;;4.00;2.05;;;5.20;99.90;;;;;;5051716;28;20117;-83
2022/04/02 10:27:09;;;;;;;5.07;1.70;;;5.00;99.90;;;;;;5044090;28;20336;-83
2022/04/02 10:30:00;;;;;;;3.90;1.85;;;4.80;99.90;;;;;;5036663;28;20485;-82
2022/04/02 10:32:53;;;;;;;2.63;2.05;;;5.00;99.90;;;;;;5054243;28;20048;-82
2022/04/02 10:35:24;;;;;;;3.70;1.80;;;5.00;99.90;;;;;;5051962;28;20496;-82
2022/04/02 10:38:07;;;;;;;3.67;1.60;;;5.10;99.90;;;;;;5051477;28;20032;-82
2022/04/02 10:40:43;;;;;;;4.25;1.90;;;5.30;99.90;;;;;;5036788;28;20555;-83
2022/04/02 10:43:29;;;;;;;4.43;1.83;;;5.30;99.90;;;;;;5032962;28;20356;-83
2022/04/02 10:46:02;;;;;;;3.75;1.92;;;5.70;99.90;;;;;;5037296;28;20044;-82
2022/04/02 10:49:00;;;;;;;4.63;1.67;;;5.40;99.90;;;;;;5066166;28;20045;-83
2022/04/02 10:51:30;;;;;;;2.42;1.73;;;6.00;99.90;;;;;;5043510;28;20044;-83
2022/04/02 10:54:10;;;;;;;4.18;1.50;;;6.20;99.90;;;;;;5039802;28;20529;-83
2022/04/02 10:56:41;;;;;;;2.95;1.58;;;6.10;99.90;;;;;;5039899;28;20036;-83
2022/04/02 10:59:12;;;;;;;3.58;1.90;;;6.20;99.90;;;;;;5053718;28;20441;-83
2022/04/02 11:01:52;;;;;;;3.17;1.80;;;6.50;99.90;;;;;;5050545;28;20283;-84
2022/04/02 11:04:33;;;;;;;3.08;1.75;;;6.50;99.90;;;;;;5061333;28;20056;-83
2022/04/02 11:07:00;;;;;;;4.28;1.70;;;6.10;99.90;;;;;;5040409;28;20135;-83
2022/04/02 11:09:30;;;;;;;6.90;2.28;;;6.20;99.90;;;;;;5037557;28;20110;-83
2022/04/02 11:12:15;;;;;;;4.82;2.00;;;6.10;99.90;;;;;;5053953;28;20111;-83
2022/04/02 11:14:42;;;;;;;;;;;5.90;99.90;;;;;;5048462;28;20041;-84
2022/04/02 11:17:28;;;;;;;3.22;2.00;;;6.20;99.90;;;;;;5041994;28;19970;-83
2022/04/02 11:20:01;;;;;;;4.10;1.80;;;6.30;99.90;;;;;;5071065;28;20047;-83
2022/04/02 11:22:43;;;;;;;3.17;1.80;;;6.80;99.90;;;;;;5053738;28;20468;-83
2022/04/02 11:25:16;;;;;;;3.20;1.77;;;6.70;99.90;;;;;;5060441;28;21020;-82
2022/04/02 11:27:54;;;;;;;4.53;1.90;;;6.70;99.90;;;;;;5070153;28;20044;-84
2022/04/02 11:30:21;;;;;;;4.55;2.20;;;7.40;99.90;;;;;;5075025;28;20595;-84
2022/04/02 11:32:53;;;;;;;8.45;2.00;;;7.90;99.90;;;;;;5066105;28;20047;-83
2022/04/02 11:35:23;;;;;;;6.82;2.00;;;8.60;99.90;;;;;;5055498;28;20124;-83
2022/04/02 11:38:10;;;;;;;4.95;2.00;;;8.10;99.90;;;;;;5048188;28;20048;-83
2022/04/02 11:40:43;;;;;;;4.00;1.60;;;7.80;99.90;;;;;;5041048;28;20047;-83
2022/04/02 11:43:09;;;;;;;3.10;1.50;;;7.90;99.90;;;;;;5073407;28;20372;-83
2022/04/02 11:45:37;;;;;;;5.00;1.85;;;7.50;99.90;;;;;;5056918;28;20500;-83
2022/04/02 11:48:10;;;;;;;3.15;1.80;;;7.60;99.90;;;;;;5053617;28;20109;-83
2022/04/02 11:50:42;;;;;;;4.10;1.75;;;7.60;99.90;;;;;;5059525;28;20127;-84
2022/04/02 11:53:09;;;;;;;3.63;1.65;;;7.50;99.90;;;;;;5053398;28;20406;-83
2022/04/02 11:55:38;;;;;;;3.30;1.88;;;7.50;99.90;;;;;;5061820;28;20503;-84
2022/04/02 11:58:08;;;;;;;4.63;1.70;;;7.00;99.90;;;;;;5055241;28;20032;-83
2022/04/02 12:00:39;;;;;;;4.15;1.92;;;7.10;99.90;;;;;;5055106;28;20132;-83
2022/04/02 12:03:27;;;;;;;5.35;1.90;;;6.90;99.90;;;;;;5065234;28;20032;-82
2022/04/02 12:06:15;;;;;;;3.90;1.60;;;6.90;99.90;;;;;;5044852;28;20448;-84
2022/04/02 12:08:44;;;;;;;4.45;1.60;;;6.90;99.90;;;;;;5036129;28;20080;-84
2022/04/02 12:11:12;;;;;;;5.65;1.73;;;7.00;99.90;;;;;;5053648;28;20115;-84
2022/04/02 12:13:55;;;;;;;2.40;1.27;;;7.30;99.90;;;;;;5040777;28;20481;-84
2022/04/02 12:16:22;;;;;;;2.95;1.58;;;6.60;99.90;;;;;;5039695;28;20044;-84
2022/04/02 12:18:57;;;;;;;3.30;1.50;;;6.40;99.90;;;;;;5036425;28;20059;-84
2022/04/02 12:21:42;;;;;;;2.13;1.27;;;6.90;99.90;;;;;;5026706;28;20040;-84
2022/04/02 12:24:18;;;;;;;3.38;1.63;;;7.70;99.90;;;;;;5055676;28;20064;-84
2022/04/02 12:26:46;;;;;;;3.40;1.60;;;8.30;99.90;;;;;;5053762;28;20445;-84
2022/04/02 12:29:18;;;;;;;2.67;1.63;;;8.40;99.90;;;;;;5038768;28;20029;-84
2022/04/02 12:31:50;;;;;;;5.18;1.63;;;9.30;99.90;;;;;;5053004;28;20212;-84
2022/04/02 12:34:21;;;;;;;3.03;1.80;;;9.00;99.90;;;;;;5051456;28;20349;-84
2022/04/02 12:36:59;;;;;;;4.50;1.50;;;8.20;99.90;;;;;;5056517;28;20446;-84
2022/04/02 12:39:28;;;;;;;3.40;1.60;;;8.40;99.90;;;;;;5052774;28;20453;-85
2022/04/02 12:41:53;;;;;;;3.95;1.70;;;9.00;99.90;;;;;;5058349;28;20052;-85
2022/04/02 12:44:21;;;;;;;3.38;1.45;;;8.60;99.90;;;;;;5052176;28;20037;-84
2022/04/02 12:46:47;;;;;;;3.58;1.63;;;7.50;99.90;;;;;;5039371;28;20527;-86
2022/04/02 12:49:30;;;;;;;3.00;1.50;;;7.50;99.90;;;;;;5056110;28;20051;-88
2022/04/02 12:52:17;;;;;;;2.20;1.50;;;7.60;99.90;;;;;;5060930;28;20052;-87
2022/04/02 12:54:44;;;;;;;2.00;1.40;;;7.00;99.90;;;;;;5048210;28;20052;-87
2022/04/02 12:57:12;;;;;;;3.42;1.35;;;6.30;99.90;;;;;;5057212;28;20504;-87
2022/04/02 12:59:42;;;;;;;3.50;1.80;;;6.20;99.90;;;;;;5041567;28;20041;-88
2022/04/02 13:02:22;;;;;;;1.92;1.42;;;6.50;99.90;;;;;;5035649;28;20299;-89
2022/04/02 13:04:55;;;;;;;4.07;2.10;;;6.60;99.90;;;;;;5034909;28;20121;-86
2022/04/02 13:07:22;;;;;;;4.50;1.90;;;6.80;99.90;;;;;;5052390;28;20048;-87
2022/04/02 13:09:51;;;;;;;2.45;1.80;;;7.20;99.90;;;;;;5066465;28;20436;-87
2022/04/02 13:12:22;;;;;;;2.13;1.50;;;6.60;99.90;;;;;;5060909;28;20554;-87
2022/04/02 13:15:09;;;;;;;2.35;1.58;;;6.50;99.90;;;;;;5053472;28;20044;-87
2022/04/02 13:20:38;;;;;;;2.60;1.52;;;6.90;99.90;;;;;;5055874;28;20040;-87
2022/04/02 13:23:06;;;;;;;4.40;1.73;;;6.90;99.90;;;;;;5055043;28;20035;-87
2022/04/02 13:25:41;;;;;;;2.50;1.92;;;6.60;99.90;;;;;;5034659;28;20028;-87
2022/04/02 13:28:39;;;;;;;3.67;1.60;;;7.20;99.90;;;;;;5044469;28;20085;-87